Oakley, Utah
Current Conditions -  °F | °C
As of 9:55 PM on Saturday 20 Dec 2014 (Local Time) from K36U Reporting Station
Overcast Overcast  
Wind Chill: 32°   Ceiling: 5000
Heat Index: 32°   Visibility: 10mi
Dew Point: 32°   Wind: 0mph
Humidity: 100%   Direction: NA
Pressure: 30.06"   Gusts: NA
Location:  40.71°N, 111.3°W
Report Text: K36U 210455Z AUTO 00000KT 10SM OVC050 00/00 A3006 RMK AO2
Loading
Personal Weather Stations






























Interactive Weather Map New forecast layout! Learn more

10-Day Weather Forecast

Advertisements
Track Severe Weather on mobile